createdAt,value
2018-07-03T00:00:25.643Z,41.00
2018-07-03T00:02:53.662Z,42.10
2018-07-03T00:05:21.561Z,41.60
2018-07-03T00:07:53.493Z,42.50
2018-07-03T00:10:21.459Z,42.00
2018-07-03T00:12:49.383Z,42.20
2018-07-03T00:15:17.248Z,42.50
2018-07-03T00:17:45.202Z,42.80
2018-07-03T00:20:13.093Z,42.90
2018-07-03T00:22:41.110Z,43.50
2018-07-03T00:25:09.072Z,43.40
2018-07-03T00:27:37.018Z,43.50
2018-07-03T00:30:05.037Z,43.70
2018-07-03T00:32:32.979Z,43.60
2018-07-03T00:35:00.913Z,43.80
2018-07-03T00:37:28.805Z,44.10
2018-07-03T00:40:03.487Z,44.00
2018-07-03T00:42:31.381Z,44.20
2018-07-03T00:44:59.248Z,44.90
2018-07-03T00:47:27.122Z,44.60
2018-07-03T00:49:55.058Z,44.90
2018-07-03T00:52:22.941Z,45.10
2018-07-03T00:54:50.870Z,45.10
2018-07-03T00:57:18.837Z,44.70
2018-07-03T00:59:57.977Z,45.10
2018-07-03T01:02:25.965Z,45.90
2018-07-03T01:04:53.849Z,45.40
2018-07-03T01:07:21.837Z,45.70
2018-07-03T01:09:49.746Z,46.70
2018-07-03T01:12:17.715Z,46.50
2018-07-03T01:14:45.672Z,47.50
2018-07-03T01:17:13.633Z,48.10
2018-07-03T01:19:41.478Z,48.70
2018-07-03T01:22:09.433Z,48.80
2018-07-03T01:24:37.732Z,49.50
2018-07-03T01:27:05.778Z,50.10
2018-07-03T01:29:33.730Z,51.80
2018-07-03T01:32:01.633Z,51.90
2018-07-03T01:34:29.610Z,53.20
2018-07-03T01:36:57.510Z,53.00
2018-07-03T01:42:00.051Z,54.20
2018-07-03T01:44:27.941Z,57.10
2018-07-03T01:46:55.879Z,57.40
2018-07-03T01:49:23.750Z,57.60
2018-07-03T01:51:51.646Z,58.70
2018-07-03T01:54:19.655Z,58.60
2018-07-03T01:56:47.683Z,58.50
2018-07-03T01:59:15.603Z,59.50
2018-07-03T02:01:43.543Z,60.40
2018-07-03T02:04:11.872Z,61.40
2018-07-03T02:06:39.857Z,62.10
2018-07-03T02:09:10.414Z,63.40
2018-07-03T02:11:38.577Z,63.90
2018-07-03T02:14:06.851Z,63.80
2018-07-03T02:16:34.833Z,65.50
2018-07-03T02:19:02.842Z,65.90
2018-07-03T02:21:30.882Z,65.40
2018-07-03T02:23:59.126Z,66.00
2018-07-03T02:26:27.024Z,67.90
2018-07-03T02:28:54.999Z,67.10
2018-07-03T02:31:23.066Z,66.90
2018-07-03T02:33:51.064Z,68.10
2018-07-03T02:36:19.018Z,70.70
2018-07-03T02:38:46.959Z,71.90
2018-07-03T02:41:14.969Z,71.50
2018-07-03T02:43:42.877Z,73.00
2018-07-03T02:46:10.888Z,73.40
2018-07-03T02:48:38.977Z,75.40
2018-07-03T02:51:07.088Z,74.50
2018-07-03T02:53:35.130Z,75.00
2018-07-03T02:56:03.044Z,75.50
2018-07-03T02:58:30.881Z,76.10
2018-07-03T03:00:58.817Z,76.90
2018-07-03T03:03:26.773Z,77.70
2018-07-03T03:05:54.718Z,77.70
2018-07-03T03:08:24.014Z,77.80
2018-07-03T03:10:52.041Z,78.90
2018-07-03T03:13:19.966Z,78.90
2018-07-03T03:15:47.950Z,78.70
2018-07-03T03:18:15.844Z,78.60
2018-07-03T03:20:43.808Z,77.80
2018-07-03T03:25:39.543Z,79.80
2018-07-03T03:28:07.487Z,80.40
2018-07-03T03:30:35.353Z,78.70
2018-07-03T03:33:03.408Z,79.10
2018-07-03T03:35:31.389Z,79.30
2018-07-03T03:37:59.232Z,81.30
2018-07-03T03:40:27.171Z,81.70
2018-07-03T03:42:55.099Z,78.80
2018-07-03T03:45:23.037Z,80.70
2018-07-03T03:47:50.953Z,79.10
2018-07-03T03:50:18.903Z,79.50
2018-07-03T03:52:46.908Z,80.80
2018-07-03T03:55:14.879Z,82.60
2018-07-03T03:57:42.770Z,81.20
2018-07-03T04:00:11.127Z,80.70
2018-07-03T04:02:39.454Z,80.20
2018-07-03T04:05:07.667Z,79.50
2018-07-03T04:07:35.621Z,81.50
2018-07-03T04:12:31.432Z,83.10
2018-07-03T04:14:59.388Z,82.90
2018-07-03T04:17:27.354Z,82.00
2018-07-03T04:19:55.296Z,81.20
2018-07-03T04:22:23.213Z,82.20
2018-07-03T04:24:51.145Z,81.20
2018-07-03T04:27:19.058Z,80.00
2018-07-03T04:29:47.403Z,82.30
2018-07-03T04:32:15.418Z,80.50
2018-07-03T04:34:43.397Z,80.30
2018-07-03T04:37:11.328Z,80.50
2018-07-03T04:39:39.258Z,81.40
2018-07-03T04:42:07.221Z,80.00
2018-07-03T04:44:35.108Z,78.70
2018-07-03T04:47:03.163Z,78.50
2018-07-03T04:49:31.051Z,78.80
2018-07-03T04:51:59.027Z,77.90
2018-07-03T04:54:27.106Z,79.50
2018-07-03T04:56:55.109Z,79.40
2018-07-03T04:59:23.018Z,81.00
2018-07-03T05:01:51.091Z,80.20
2018-07-03T05:04:19.019Z,77.30
2018-07-03T05:06:47.027Z,77.90
2018-07-03T05:09:14.921Z,76.40
2018-07-03T05:11:42.831Z,77.40
2018-07-03T05:14:10.773Z,77.10
2018-07-03T05:16:38.767Z,76.80
2018-07-03T05:19:07.051Z,77.80
2018-07-03T05:21:35.102Z,77.30
2018-07-03T05:24:03.100Z,76.80
2018-07-03T05:29:05.780Z,74.50
2018-07-03T05:31:40.354Z,75.00
2018-07-03T05:34:08.385Z,73.30
2018-07-03T05:36:37.224Z,72.00
2018-07-03T05:39:07.825Z,72.50
2018-07-03T05:41:35.824Z,73.90
2018-07-03T05:44:03.859Z,72.20
2018-07-03T05:46:31.838Z,72.60
2018-07-03T05:48:59.789Z,71.10
2018-07-03T05:51:27.738Z,68.20
2018-07-03T05:53:55.841Z,67.90
2018-07-03T05:56:23.820Z,66.40
2018-07-03T05:58:51.694Z,66.90
2018-07-03T06:01:19.597Z,65.70
2018-07-03T06:03:47.557Z,64.20
2018-07-03T06:06:15.426Z,64.10
2018-07-03T06:08:43.337Z,62.90
2018-07-03T06:11:11.231Z,61.90
2018-07-03T06:13:39.170Z,61.20
2018-07-03T06:16:07.273Z,61.00
2018-07-03T06:18:35.304Z,59.70
2018-07-03T06:21:03.353Z,59.90
2018-07-03T06:23:31.250Z,58.70
2018-07-03T06:25:59.288Z,59.10
2018-07-03T06:28:27.137Z,58.50
2018-07-03T06:30:55.113Z,57.50
2018-07-03T06:33:23.053Z,57.30
2018-07-03T06:35:51.086Z,56.70
2018-07-03T06:38:18.970Z,56.00
2018-07-03T06:40:46.891Z,56.10
2018-07-03T06:43:14.878Z,56.30
2018-07-03T06:45:42.813Z,56.10
2018-07-03T06:48:10.753Z,54.40
2018-07-03T06:50:38.685Z,53.20
2018-07-03T06:53:06.641Z,52.50
2018-07-03T06:55:34.581Z,52.20
2018-07-03T06:58:02.451Z,51.80
2018-07-03T07:00:30.317Z,51.30
2018-07-03T07:02:58.232Z,51.20
2018-07-03T07:05:26.192Z,51.40
2018-07-03T07:07:54.262Z,50.50
2018-07-03T07:10:22.197Z,49.90
2018-07-03T07:12:50.177Z,49.70
2018-07-03T07:15:18.137Z,48.20
2018-07-03T07:17:46.123Z,44.70
2018-07-03T07:20:14.075Z,41.40
2018-07-03T07:22:42.050Z,40.80
2018-07-03T07:25:09.940Z,41.10
2018-07-03T07:27:37.860Z,41.00
2018-07-03T07:30:06.143Z,39.60
2018-07-03T07:32:34.117Z,40.00
2018-07-03T07:35:02.078Z,37.10
2018-07-03T07:37:29.920Z,38.00
2018-07-03T07:39:57.786Z,35.70
2018-07-03T07:42:25.630Z,31.60
2018-07-03T07:44:53.477Z,28.50
2018-07-03T07:47:21.384Z,26.00
2018-07-03T07:49:49.216Z,24.00
2018-07-03T07:52:17.028Z,21.80
2018-07-03T07:54:44.889Z,20.90
2018-07-03T07:57:12.729Z,20.50
2018-07-03T07:59:40.551Z,20.10
2018-07-03T08:02:08.318Z,20.10
2018-07-03T08:04:36.131Z,19.10
2018-07-03T08:07:04.389Z,18.80
2018-07-03T08:09:32.276Z,18.00
2018-07-03T08:12:00.228Z,17.40
2018-07-03T08:14:28.143Z,16.70
2018-07-03T08:16:56.005Z,16.20
2018-07-03T08:19:23.873Z,15.90
2018-07-03T08:21:51.878Z,15.80
2018-07-03T08:24:19.695Z,16.10
2018-07-03T08:26:47.594Z,15.90
2018-07-03T08:29:15.501Z,16.10
2018-07-03T08:31:43.342Z,15.90
2018-07-03T08:34:11.216Z,15.70
2018-07-03T08:36:39.144Z,15.20
2018-07-03T08:39:09.041Z,15.20
2018-07-03T08:41:36.946Z,15.50
2018-07-03T08:44:04.749Z,15.80
2018-07-03T08:46:32.569Z,15.70
2018-07-03T08:49:00.469Z,15.20
2018-07-03T08:51:28.354Z,14.80
2018-07-03T08:53:56.125Z,15.10
2018-07-03T08:56:24.160Z,15.00
2018-07-03T08:58:52.066Z,15.40
2018-07-03T09:01:19.912Z,14.90
2018-07-03T09:03:47.818Z,15.40
2018-07-03T09:06:15.823Z,15.40
2018-07-03T09:08:43.836Z,15.40
2018-07-03T09:11:11.678Z,14.80
2018-07-03T09:13:39.589Z,14.40
2018-07-03T09:18:35.180Z,14.10
2018-07-03T09:21:03.058Z,13.70
2018-07-03T09:23:30.907Z,13.40
2018-07-03T09:25:58.724Z,13.20
2018-07-03T09:28:26.573Z,14.00
2018-07-03T09:33:22.136Z,13.70
2018-07-03T09:35:49.928Z,13.20
2018-07-03T09:38:17.803Z,13.60
2018-07-03T09:40:45.617Z,13.70
2018-07-03T09:43:13.629Z,13.80
2018-07-03T09:45:41.481Z,14.00
2018-07-03T09:48:16.224Z,14.00
2018-07-03T09:50:44.052Z,14.00
2018-07-03T09:53:12.001Z,14.20
2018-07-03T09:55:39.851Z,13.50
2018-07-03T09:58:07.756Z,14.10
2018-07-03T10:00:41.295Z,13.80
2018-07-03T10:03:09.151Z,13.80
2018-07-03T10:05:36.967Z,13.80
2018-07-03T10:08:04.840Z,14.00
2018-07-03T10:10:32.763Z,14.40
2018-07-03T10:13:00.559Z,14.20
2018-07-03T10:15:28.374Z,14.70
2018-07-03T10:17:56.186Z,14.20
2018-07-03T10:20:23.969Z,14.50
2018-07-03T10:22:51.814Z,14.50
2018-07-03T10:25:19.436Z,14.90
2018-07-03T10:27:47.092Z,14.80
2018-07-03T10:30:14.713Z,14.90
2018-07-03T10:32:42.379Z,14.90
2018-07-03T10:35:10.013Z,14.40
2018-07-03T10:37:37.684Z,14.10
2018-07-03T10:40:05.565Z,13.80
2018-07-03T10:42:33.295Z,13.90
2018-07-03T10:45:00.910Z,14.40
2018-07-03T10:47:28.530Z,14.40
2018-07-03T10:52:23.760Z,14.50
2018-07-03T10:54:51.361Z,14.70
2018-07-03T10:57:19.007Z,14.40
2018-07-03T10:59:46.693Z,14.90
2018-07-03T11:02:14.345Z,14.90
2018-07-03T11:04:41.974Z,15.20
2018-07-03T11:07:09.675Z,15.20
2018-07-03T11:09:37.326Z,15.40
2018-07-03T11:12:05.473Z,16.30
2018-07-03T11:14:33.101Z,16.00
2018-07-03T11:17:00.724Z,16.10
2018-07-03T11:19:28.352Z,15.90
2018-07-03T11:21:56.021Z,15.90
2018-07-03T11:24:23.683Z,15.40
2018-07-03T11:26:51.365Z,15.30
2018-07-03T11:29:18.985Z,15.50
2018-07-03T11:31:46.626Z,15.80
2018-07-03T11:34:14.336Z,15.30
2018-07-03T11:36:42.065Z,14.90
2018-07-03T11:39:09.891Z,15.30
2018-07-03T11:41:37.589Z,15.70
2018-07-03T11:46:32.847Z,15.20
2018-07-03T11:49:00.514Z,15.10
2018-07-03T11:51:28.203Z,15.20
2018-07-03T11:53:55.829Z,15.10
2018-07-03T11:56:23.721Z,15.60
2018-07-03T11:58:51.404Z,15.50
2018-07-03T12:01:19.091Z,15.80
2018-07-03T12:03:46.735Z,16.00
2018-07-03T12:06:14.406Z,16.10
2018-07-03T12:08:42.033Z,16.40
2018-07-03T12:11:09.666Z,16.20
2018-07-03T12:13:37.284Z,16.20
2018-07-03T12:16:05.017Z,16.40
2018-07-03T12:18:38.397Z,16.40
2018-07-03T12:21:06.236Z,16.90
2018-07-03T12:23:33.885Z,17.00
2018-07-03T12:26:01.911Z,17.20
2018-07-03T12:28:29.621Z,17.80
2018-07-03T12:30:57.236Z,18.20
2018-07-03T12:33:24.882Z,18.50
2018-07-03T12:35:52.541Z,19.00
2018-07-03T12:38:20.169Z,19.00
2018-07-03T12:40:47.821Z,19.90
2018-07-03T12:43:15.460Z,20.40
2018-07-03T12:45:43.088Z,20.50
2018-07-03T12:48:10.717Z,20.40
2018-07-03T12:53:12.937Z,20.70
2018-07-03T12:55:40.573Z,20.40
2018-07-03T12:58:08.517Z,20.50
2018-07-03T13:00:36.178Z,20.30
2018-07-03T13:03:03.933Z,20.50
2018-07-03T13:05:31.645Z,20.30
2018-07-03T13:07:59.290Z,20.60
2018-07-03T13:10:26.917Z,20.40
2018-07-03T13:12:54.597Z,20.30
2018-07-03T13:15:22.245Z,20.20
2018-07-03T13:17:49.924Z,20.50
2018-07-03T13:20:17.605Z,20.90
2018-07-03T13:22:45.251Z,20.40
2018-07-03T13:25:13.001Z,20.70
2018-07-03T13:27:40.624Z,21.00
2018-07-03T13:30:09.439Z,20.70
2018-07-03T13:32:37.092Z,20.90
2018-07-03T13:35:06.060Z,20.70
2018-07-03T13:37:33.677Z,20.70
2018-07-03T13:40:01.391Z,20.70
2018-07-03T13:42:29.053Z,20.60
2018-07-03T13:44:56.694Z,20.60
2018-07-03T13:47:24.334Z,20.80
2018-07-03T13:49:51.978Z,20.60
2018-07-03T13:52:19.598Z,20.70
2018-07-03T13:57:14.898Z,20.40
2018-07-03T13:59:42.530Z,20.70
2018-07-03T14:02:10.201Z,20.40
2018-07-03T14:04:37.848Z,20.90
2018-07-03T14:07:05.480Z,21.00
2018-07-03T14:12:00.725Z,20.80
2018-07-03T14:14:28.443Z,21.00
2018-07-03T14:16:56.099Z,20.80
2018-07-03T14:19:23.753Z,20.80
2018-07-03T14:21:51.400Z,20.70
2018-07-03T14:24:19.040Z,21.00
2018-07-03T14:26:46.680Z,20.50
2018-07-03T14:29:14.401Z,20.70
2018-07-03T14:31:42.024Z,20.40
2018-07-03T14:34:09.676Z,20.70
2018-07-03T14:36:37.295Z,20.70
2018-07-03T14:39:09.618Z,21.00
2018-07-03T14:41:37.305Z,20.90
2018-07-03T14:44:05.106Z,20.80
2018-07-03T14:46:32.749Z,20.50
2018-07-03T14:49:00.466Z,20.90
2018-07-03T14:51:28.173Z,20.90
2018-07-03T14:53:55.787Z,21.20
2018-07-03T14:56:23.675Z,21.10
2018-07-03T14:58:51.312Z,21.00
2018-07-03T15:01:18.958Z,20.80
2018-07-03T15:03:46.564Z,21.20
2018-07-03T15:06:14.245Z,21.10
2018-07-03T15:08:41.854Z,21.20
2018-07-03T15:11:09.496Z,21.40
2018-07-03T15:13:37.121Z,21.30
2018-07-03T15:16:04.889Z,21.50
2018-07-03T15:18:38.082Z,21.80
2018-07-03T15:21:05.886Z,21.40
2018-07-03T15:23:33.496Z,21.60
2018-07-03T15:26:01.322Z,21.70
2018-07-03T15:28:28.928Z,21.10
2018-07-03T15:30:56.561Z,20.90
2018-07-03T15:33:24.222Z,21.30
2018-07-03T15:35:51.905Z,21.30
2018-07-03T15:38:19.605Z,21.40
2018-07-03T15:40:47.267Z,21.60
2018-07-03T15:43:14.937Z,21.10
2018-07-03T15:45:42.557Z,21.10
2018-07-03T15:50:37.789Z,21.50
2018-07-03T15:53:05.416Z,21.50
2018-07-03T15:55:33.068Z,21.70
2018-07-03T15:58:00.722Z,21.20
2018-07-03T16:00:28.488Z,21.70
2018-07-03T16:03:07.396Z,21.10
2018-07-03T16:05:46.406Z,21.50
2018-07-03T16:08:25.331Z,21.60
2018-07-03T16:10:52.955Z,21.70
2018-07-03T16:13:20.653Z,21.90
2018-07-03T16:15:48.287Z,21.60
2018-07-03T16:18:15.953Z,22.00
2018-07-03T16:20:43.609Z,22.10
2018-07-03T16:23:11.263Z,21.60
2018-07-03T16:25:38.943Z,21.50
2018-07-03T16:28:06.678Z,21.60
2018-07-03T16:30:34.320Z,21.60
2018-07-03T16:33:01.988Z,21.90
2018-07-03T16:35:29.628Z,22.10
2018-07-03T16:37:57.331Z,22.10
2018-07-03T16:40:24.977Z,22.30
2018-07-03T16:42:52.638Z,21.90
2018-07-03T16:45:20.289Z,22.00
2018-07-03T16:47:48.063Z,22.40
2018-07-03T16:50:15.719Z,22.20
2018-07-03T16:52:43.470Z,22.60
2018-07-03T16:55:11.351Z,22.70
2018-07-03T16:57:39.063Z,23.10
2018-07-03T17:00:06.782Z,23.00
2018-07-03T17:02:34.513Z,22.60
2018-07-03T17:05:02.297Z,22.80
2018-07-03T17:07:30.028Z,23.00
2018-07-03T17:09:57.685Z,23.30
2018-07-03T17:12:25.399Z,23.30
2018-07-03T17:14:53.047Z,22.90
2018-07-03T17:17:20.699Z,23.30
2018-07-03T17:19:48.314Z,23.50
2018-07-03T17:22:16.049Z,23.40
2018-07-03T17:24:43.691Z,23.60
2018-07-03T17:27:12.181Z,23.90
2018-07-03T17:29:39.831Z,23.50
2018-07-03T17:32:07.504Z,23.80
2018-07-03T17:34:35.205Z,23.80
2018-07-03T17:37:02.896Z,23.70
2018-07-03T17:39:41.748Z,23.70
2018-07-03T17:42:20.725Z,23.80
2018-07-03T17:46:04.436Z,23.90
2018-07-03T17:48:32.281Z,24.50
2018-07-03T17:50:59.977Z,25.00
2018-07-03T17:53:27.652Z,25.10
2018-07-03T17:55:55.811Z,25.50
2018-07-03T17:58:23.772Z,25.60
2018-07-03T18:00:51.201Z,25.40
2018-07-03T18:03:18.844Z,25.50
2018-07-03T18:05:46.597Z,25.50
2018-07-03T18:08:14.342Z,25.50
2018-07-03T18:10:42.255Z,25.70
2018-07-03T18:13:09.917Z,25.90
2018-07-03T18:15:37.681Z,26.00
2018-07-03T18:18:05.434Z,26.20
2018-07-03T18:20:33.089Z,26.40
2018-07-03T18:23:00.753Z,26.40
2018-07-03T18:25:28.461Z,26.10
2018-07-03T18:27:56.117Z,26.40
2018-07-03T18:30:23.737Z,26.40
2018-07-03T18:32:51.401Z,26.40
2018-07-03T18:35:19.103Z,26.50
2018-07-03T18:37:46.758Z,26.50
2018-07-03T18:40:14.549Z,26.50
2018-07-03T18:42:42.209Z,26.30
2018-07-03T18:45:09.860Z,26.00
2018-07-03T18:47:37.497Z,26.30
2018-07-03T18:50:05.441Z,26.70
2018-07-03T18:52:33.117Z,26.80
2018-07-03T18:55:00.801Z,26.80
2018-07-03T18:57:28.509Z,26.90
2018-07-03T18:59:56.642Z,27.10
2018-07-03T19:02:30.824Z,27.30
2018-07-03T19:04:58.482Z,27.40
2018-07-03T19:07:26.089Z,27.70
2018-07-03T19:09:53.733Z,27.80
2018-07-03T19:12:21.418Z,28.10
2018-07-03T19:14:49.101Z,28.50
2018-07-03T19:17:16.810Z,28.90
2018-07-03T19:19:44.507Z,29.20
2018-07-03T19:22:12.137Z,29.30
2018-07-03T19:24:52.924Z,29.70
2018-07-03T19:27:20.572Z,29.90
2018-07-03T19:29:48.320Z,30.20
2018-07-03T19:32:15.984Z,30.40
2018-07-03T19:34:43.681Z,30.80
2018-07-03T19:37:11.585Z,30.80
2018-07-03T19:39:39.277Z,31.10
2018-07-03T19:42:06.969Z,31.60
2018-07-03T19:44:34.566Z,31.60
2018-07-03T19:47:02.212Z,31.80
2018-07-03T19:49:29.895Z,32.00
2018-07-03T19:51:57.537Z,32.40
2018-07-03T19:54:25.207Z,32.70
2018-07-03T19:56:52.829Z,33.10
2018-07-03T19:59:20.502Z,33.30
2018-07-03T20:01:48.157Z,33.60
2018-07-03T20:04:15.853Z,34.00
2018-07-03T20:06:43.528Z,34.90
2018-07-03T20:09:12.224Z,35.10
2018-07-03T20:11:39.901Z,35.40
2018-07-03T20:14:07.845Z,35.50
2018-07-03T20:16:35.493Z,35.30
2018-07-03T20:19:03.222Z,35.70
2018-07-03T20:21:30.871Z,35.60
2018-07-03T20:24:11.710Z,35.80
2018-07-03T20:26:39.711Z,35.90
2018-07-03T20:29:07.376Z,36.60
2018-07-03T20:31:34.998Z,36.70
2018-07-03T20:34:02.696Z,37.10
2018-07-03T20:36:30.368Z,36.70
2018-07-03T20:38:58.024Z,37.70
2018-07-03T20:41:25.666Z,37.20
2018-07-03T20:43:53.789Z,36.80
2018-07-03T20:46:21.416Z,37.00
2018-07-03T20:48:49.044Z,37.00
2018-07-03T20:51:16.699Z,36.90
2018-07-03T20:53:44.436Z,37.10
2018-07-03T20:56:12.103Z,37.30
2018-07-03T20:58:39.805Z,37.70
2018-07-03T21:01:07.458Z,37.90
2018-07-03T21:03:35.131Z,38.40
2018-07-03T21:06:02.922Z,38.10
2018-07-03T21:08:30.496Z,37.60
2018-07-03T21:10:58.172Z,37.90
2018-07-03T21:13:25.817Z,37.90
2018-07-03T21:15:53.462Z,37.90
2018-07-03T21:18:21.125Z,38.10
2018-07-03T21:20:48.825Z,38.50
2018-07-03T21:23:17.005Z,39.00
2018-07-03T21:25:44.657Z,39.10
2018-07-03T21:28:12.268Z,39.90
2018-07-03T21:30:39.905Z,39.20
2018-07-03T21:33:07.561Z,39.60
2018-07-03T21:35:35.166Z,40.50
2018-07-03T21:38:02.831Z,39.90
2018-07-03T21:40:30.515Z,40.20
2018-07-03T21:42:58.161Z,40.30
2018-07-03T21:45:25.759Z,41.20
2018-07-03T21:47:53.420Z,41.70
2018-07-03T21:50:21.027Z,41.20
2018-07-03T21:52:49.083Z,41.40
2018-07-03T21:55:16.740Z,41.70
2018-07-03T21:57:44.337Z,42.40
2018-07-03T22:00:11.973Z,42.30
2018-07-03T22:02:39.576Z,42.50
2018-07-03T22:05:07.205Z,42.80
2018-07-03T22:07:34.793Z,43.60
2018-07-03T22:10:02.729Z,44.10
2018-07-03T22:12:30.462Z,45.20
2018-07-03T22:14:58.083Z,46.70
2018-07-03T22:17:26.233Z,48.40
2018-07-03T22:19:53.874Z,48.80
2018-07-03T22:22:21.516Z,50.50
2018-07-03T22:24:49.141Z,51.30
2018-07-03T22:27:16.812Z,51.50
2018-07-03T22:29:44.424Z,51.60
2018-07-03T22:32:12.028Z,51.80
2018-07-03T22:34:39.776Z,52.60
2018-07-03T22:37:07.446Z,53.00
2018-07-03T22:39:35.228Z,53.30
2018-07-03T22:42:02.832Z,54.00
2018-07-03T22:44:30.428Z,55.00
2018-07-03T22:46:58.074Z,54.50
2018-07-03T22:49:25.700Z,55.30
2018-07-03T22:51:53.328Z,56.30
2018-07-03T22:54:20.948Z,55.90
2018-07-03T22:56:48.576Z,55.60
2018-07-03T23:01:43.681Z,57.10
2018-07-03T23:04:11.300Z,57.40
2018-07-03T23:06:38.928Z,58.60
2018-07-03T23:09:07.242Z,58.50
2018-07-03T23:11:34.903Z,59.20
2018-07-03T23:14:02.568Z,59.70
2018-07-03T23:16:30.510Z,60.70
2018-07-03T23:18:58.131Z,61.40
2018-07-03T23:21:25.809Z,63.00
2018-07-03T23:23:53.424Z,63.30
2018-07-03T23:26:21.045Z,63.50
2018-07-03T23:28:48.651Z,65.30
2018-07-03T23:31:16.330Z,64.20
2018-07-03T23:33:43.895Z,64.00
2018-07-03T23:38:39.045Z,66.30
2018-07-03T23:41:06.737Z,65.70
2018-07-03T23:43:34.337Z,66.70
2018-07-03T23:46:00.846Z,66.60
2018-07-03T23:48:39.847Z,68.10
2018-07-03T23:51:19.697Z,66.90
2018-07-03T23:53:58.802Z,67.10
2018-07-03T23:56:38.887Z,67.70
2018-07-03T23:59:17.968Z,68.40
